createdAt,value
2019-02-02T00:01:28.699Z,32.37
2019-02-02T00:03:55.637Z,32.83
2019-02-02T00:06:22.546Z,38.33
2019-02-02T00:08:49.490Z,28.77
2019-02-02T00:11:16.407Z,29.90
2019-02-02T00:13:43.374Z,30.50
2019-02-02T00:16:10.310Z,33.17
2019-02-02T00:18:37.221Z,33.00
2019-02-02T00:21:04.441Z,34.23
2019-02-02T00:23:31.355Z,30.73
2019-02-02T00:25:58.246Z,29.37
2019-02-02T00:28:25.174Z,35.33
2019-02-02T00:30:52.112Z,29.33
2019-02-02T00:33:19.030Z,33.70
2019-02-02T00:35:45.974Z,28.10
2019-02-02T00:38:12.907Z,30.50
2019-02-02T00:40:39.823Z,28.20
2019-02-02T00:43:06.867Z,30.90
2019-02-02T00:45:33.901Z,37.60
2019-02-02T00:48:00.803Z,29.60
2019-02-02T00:50:27.803Z,33.57
2019-02-02T00:52:54.709Z,32.43
2019-02-02T00:55:21.854Z,31.37
2019-02-02T00:57:53.650Z,28.33
2019-02-02T01:00:18.000Z,31.67
2019-02-02T01:02:45.044Z,32.37
2019-02-02T01:05:13.737Z,33.33
2019-02-02T01:07:40.678Z,40.47
2019-02-02T01:10:12.558Z,37.80
2019-02-02T01:12:39.550Z,50.40
2019-02-02T01:15:07.239Z,50.63
2019-02-02T01:17:34.222Z,38.67
2019-02-02T01:20:01.160Z,36.10
2019-02-02T01:22:28.056Z,32.13
2019-02-02T01:24:55.141Z,34.67
2019-02-02T01:27:22.042Z,32.00
2019-02-02T01:29:49.013Z,30.43
2019-02-02T01:32:15.969Z,28.17
2019-02-02T01:34:42.888Z,32.80
2019-02-02T01:37:09.812Z,33.40
2019-02-02T01:39:36.820Z,29.50
2019-02-02T01:42:03.801Z,33.20
2019-02-02T01:44:30.722Z,31.60
2019-02-02T01:46:57.742Z,29.70
2019-02-02T01:49:24.674Z,29.80
2019-02-02T01:51:51.603Z,28.83
2019-02-02T01:54:18.543Z,35.03
2019-02-02T01:56:45.487Z,28.83
2019-02-02T01:59:12.382Z,32.97
2019-02-02T02:01:41.638Z,36.37
2019-02-02T02:04:08.170Z,30.33
2019-02-02T02:06:35.140Z,29.83
2019-02-02T02:09:02.673Z,31.83
2019-02-02T02:11:29.626Z,30.93
2019-02-02T02:13:56.565Z,32.43
2019-02-02T02:16:23.539Z,31.43
2019-02-02T02:18:50.456Z,25.57
2019-02-02T02:21:17.404Z,31.43
2019-02-02T02:23:44.323Z,34.93
2019-02-02T02:26:11.249Z,27.30
2019-02-02T02:28:38.201Z,31.57
2019-02-02T02:31:05.142Z,33.20
2019-02-02T02:33:32.086Z,27.23
2019-02-02T02:35:59.080Z,24.70
2019-02-02T02:38:26.017Z,26.17
2019-02-02T02:40:53.196Z,29.07
2019-02-02T02:43:20.103Z,29.87
2019-02-02T02:45:47.009Z,25.30
2019-02-02T02:48:14.011Z,23.93
2019-02-02T02:50:40.923Z,23.57
2019-02-02T02:53:07.945Z,26.17
2019-02-02T02:55:34.913Z,26.87
2019-02-02T02:58:01.896Z,26.90
2019-02-02T03:00:28.886Z,23.23
2019-02-02T03:02:55.923Z,24.97
2019-02-02T03:05:22.834Z,28.05
2019-02-02T03:07:50.575Z,25.20
2019-02-02T03:10:19.188Z,25.57
2019-02-02T03:12:46.164Z,24.80
2019-02-02T03:15:15.320Z,23.83
2019-02-02T03:17:42.502Z,28.07
2019-02-02T03:20:10.732Z,23.63
2019-02-02T03:22:37.737Z,26.17
2019-02-02T03:25:06.872Z,25.67
2019-02-02T03:27:34.276Z,27.00
2019-02-02T03:30:01.257Z,26.47
2019-02-02T03:32:28.282Z,28.60
2019-02-02T03:34:55.187Z,29.27
2019-02-02T03:37:22.111Z,33.50
2019-02-02T03:39:49.043Z,30.90
2019-02-02T03:42:15.978Z,29.80
2019-02-02T03:44:42.871Z,28.67
2019-02-02T03:47:09.739Z,27.47
2019-02-02T03:49:36.682Z,28.30
2019-02-02T03:52:03.680Z,29.53
2019-02-02T03:54:30.640Z,32.37
2019-02-02T03:56:57.534Z,29.53
2019-02-02T03:59:24.499Z,27.40
2019-02-02T04:01:51.409Z,31.37
2019-02-02T04:04:18.319Z,33.13
2019-02-02T04:06:45.228Z,30.60
2019-02-02T04:09:12.239Z,31.43
2019-02-02T04:11:39.136Z,33.87
2019-02-02T04:14:06.103Z,30.30
2019-02-02T04:16:33.056Z,31.80
2019-02-02T04:18:59.940Z,31.80
2019-02-02T04:21:26.830Z,30.77
2019-02-02T04:23:53.841Z,38.50
2019-02-02T04:26:20.750Z,33.93
2019-02-02T04:28:47.676Z,31.60
2019-02-02T04:31:14.572Z,35.37
2019-02-02T04:33:41.518Z,32.77
2019-02-02T04:36:08.396Z,35.40
2019-02-02T04:38:35.418Z,32.93
2019-02-02T04:41:02.310Z,37.20
2019-02-02T04:43:29.252Z,33.67
2019-02-02T04:45:56.157Z,32.70
2019-02-02T04:48:23.067Z,26.50
2019-02-02T04:50:49.985Z,34.30
2019-02-02T04:53:16.884Z,34.00
2019-02-02T04:55:43.840Z,34.53
2019-02-02T04:58:10.765Z,36.93
2019-02-02T05:00:37.692Z,32.73
2019-02-02T05:03:04.576Z,36.97
2019-02-02T05:05:31.498Z,33.43
2019-02-02T05:07:58.430Z,31.57
2019-02-02T05:10:25.342Z,34.60
2019-02-02T05:12:52.266Z,30.07
2019-02-02T05:15:19.820Z,32.83
2019-02-02T05:17:46.698Z,33.97
2019-02-02T05:20:14.025Z,37.00
2019-02-02T05:22:40.924Z,35.43
2019-02-02T05:25:08.030Z,32.70
2019-02-02T05:27:34.899Z,34.30
2019-02-02T05:30:01.840Z,32.67
2019-02-02T05:32:28.720Z,35.43
2019-02-02T05:34:55.813Z,36.33
2019-02-02T05:37:22.911Z,32.43
2019-02-02T05:39:49.822Z,36.80
2019-02-02T05:42:16.732Z,31.97
2019-02-02T05:44:43.687Z,40.70
2019-02-02T05:47:10.599Z,31.57
2019-02-02T05:49:37.584Z,35.60
2019-02-02T05:52:04.484Z,34.37
2019-02-02T05:54:31.355Z,39.70
2019-02-02T05:56:58.301Z,31.20
2019-02-02T05:59:25.337Z,34.63
2019-02-02T06:01:52.325Z,38.33
2019-02-02T06:04:19.237Z,33.57
2019-02-02T06:06:46.159Z,29.53
2019-02-02T06:09:13.087Z,33.00
2019-02-02T06:11:40.027Z,39.23
2019-02-02T06:14:06.971Z,37.10
2019-02-02T06:16:33.986Z,32.43
2019-02-02T06:19:01.013Z,36.63
2019-02-02T06:21:27.952Z,37.13
2019-02-02T06:23:54.843Z,38.33
2019-02-02T06:26:21.835Z,40.67
2019-02-02T06:28:48.733Z,37.87
2019-02-02T06:31:15.648Z,41.60
2019-02-02T06:33:42.558Z,40.47
2019-02-02T06:36:09.539Z,37.87
2019-02-02T06:38:36.459Z,43.17
2019-02-02T06:41:03.363Z,44.57
2019-02-02T06:43:30.492Z,40.30
2019-02-02T06:45:57.821Z,42.97
2019-02-02T06:48:24.701Z,45.43
2019-02-02T06:50:51.693Z,50.43
2019-02-02T06:53:18.602Z,40.27
2019-02-02T06:55:45.548Z,38.87
2019-02-02T06:58:12.592Z,41.57
2019-02-02T07:00:39.504Z,37.90
2019-02-02T07:03:06.385Z,45.40
2019-02-02T07:05:33.965Z,42.47
2019-02-02T07:08:01.254Z,44.93
2019-02-02T07:10:28.310Z,48.63
2019-02-02T07:12:55.555Z,46.63
2019-02-02T07:15:24.491Z,47.43
2019-02-02T07:17:51.531Z,45.70
2019-02-02T07:20:18.693Z,42.80
2019-02-02T07:22:45.639Z,49.00
2019-02-02T07:25:12.841Z,44.80
2019-02-02T07:27:39.776Z,46.27
2019-02-02T07:30:12.584Z,45.20
2019-02-02T07:32:39.527Z,47.23
2019-02-02T07:35:07.858Z,53.83
2019-02-02T07:37:34.794Z,63.87
2019-02-02T07:40:01.694Z,56.40
2019-02-02T07:42:28.687Z,45.85
2019-02-02T07:44:55.742Z,50.80
2019-02-02T07:47:22.659Z,53.50
2019-02-02T07:49:49.572Z,46.20
2019-02-02T07:52:16.568Z,55.47
2019-02-02T07:54:43.462Z,56.37
2019-02-02T07:57:10.407Z,51.10
2019-02-02T07:59:37.331Z,50.10
2019-02-02T08:02:04.683Z,52.83
2019-02-02T08:04:31.608Z,51.33
2019-02-02T08:06:58.559Z,55.87
2019-02-02T08:09:25.450Z,48.07
2019-02-02T08:11:52.427Z,51.55
2019-02-02T08:14:19.334Z,51.57
2019-02-02T08:16:46.395Z,55.37
2019-02-02T08:19:13.342Z,60.13
2019-02-02T08:21:40.232Z,60.30
2019-02-02T08:24:07.329Z,60.40
2019-02-02T08:26:34.211Z,56.40
2019-02-02T08:29:01.156Z,59.33
2019-02-02T08:31:28.031Z,53.40
2019-02-02T08:33:54.942Z,74.10
2019-02-02T08:36:22.519Z,62.40
2019-02-02T08:38:49.495Z,72.07
2019-02-02T08:41:16.453Z,65.97
2019-02-02T08:43:43.336Z,60.53
2019-02-02T08:46:10.262Z,70.13
2019-02-02T08:48:37.183Z,65.40
2019-02-02T08:51:04.176Z,63.97
2019-02-02T08:53:31.972Z,64.90
2019-02-02T08:55:58.949Z,75.43
2019-02-02T08:58:25.938Z,77.03
2019-02-02T09:01:03.385Z,78.27
2019-02-02T09:03:21.688Z,70.37
2019-02-02T09:05:50.965Z,78.43
2019-02-02T09:08:17.407Z,66.17
2019-02-02T09:10:44.289Z,60.70
2019-02-02T09:13:11.316Z,60.83
2019-02-02T09:15:38.230Z,64.75
2019-02-02T09:18:05.320Z,62.80
2019-02-02T09:20:32.310Z,65.40
2019-02-02T09:23:05.779Z,59.13
2019-02-02T09:25:28.037Z,65.93
2019-02-02T09:27:54.958Z,61.90
2019-02-02T09:30:33.091Z,62.10
2019-02-02T09:33:00.162Z,60.70
2019-02-02T09:35:27.081Z,57.33
2019-02-02T09:37:53.975Z,60.93
2019-02-02T09:40:21.023Z,53.13
2019-02-02T09:42:48.058Z,58.80
2019-02-02T09:45:16.684Z,59.90
2019-02-02T09:47:43.657Z,57.03
2019-02-02T09:50:13.031Z,58.47
2019-02-02T09:52:39.938Z,60.90
2019-02-02T09:55:09.510Z,62.60
2019-02-02T09:57:37.197Z,61.13
2019-02-02T10:00:07.016Z,63.57
2019-02-02T10:02:33.892Z,58.90
2019-02-02T10:05:00.893Z,59.87
2019-02-02T10:07:27.785Z,56.80
2019-02-02T10:09:54.742Z,59.67
2019-02-02T10:12:21.671Z,59.87
2019-02-02T10:14:48.644Z,70.50
2019-02-02T10:17:15.535Z,57.27
2019-02-02T10:19:42.476Z,59.63
2019-02-02T10:22:09.427Z,63.00
2019-02-02T10:24:36.341Z,57.67
2019-02-02T10:27:03.377Z,58.27
2019-02-02T10:29:30.268Z,57.60
2019-02-02T10:31:57.207Z,66.37
2019-02-02T10:34:24.148Z,57.60
2019-02-02T10:36:51.064Z,58.87
2019-02-02T10:39:17.974Z,55.80
2019-02-02T10:41:44.920Z,57.20
2019-02-02T10:44:11.822Z,60.40
2019-02-02T10:46:38.803Z,68.90
2019-02-02T10:49:05.757Z,57.43
2019-02-02T10:51:32.729Z,69.73
2019-02-02T10:53:59.622Z,61.03
2019-02-02T10:56:26.560Z,57.20
2019-02-02T10:58:53.435Z,60.30
2019-02-02T11:01:20.403Z,61.33
2019-02-02T11:03:47.320Z,58.05
2019-02-02T11:06:14.240Z,61.95
2019-02-02T11:08:41.153Z,62.05
2019-02-02T11:11:08.075Z,59.25
2019-02-02T11:13:35.077Z,61.43
2019-02-02T11:16:02.184Z,64.60
2019-02-02T11:18:29.156Z,67.27
2019-02-02T11:20:56.150Z,66.03
2019-02-02T11:23:23.132Z,66.47
2019-02-02T11:25:50.061Z,65.47
2019-02-02T11:28:16.964Z,67.00
2019-02-02T11:30:44.018Z,62.73
2019-02-02T11:33:10.960Z,71.77
2019-02-02T11:35:37.838Z,66.90
2019-02-02T11:38:04.809Z,64.30
2019-02-02T11:40:33.856Z,64.97
2019-02-02T11:43:00.817Z,67.75
2019-02-02T11:45:27.713Z,63.27
2019-02-02T11:47:55.790Z,72.23
2019-02-02T11:50:23.159Z,69.93
2019-02-02T11:52:50.513Z,69.57
2019-02-02T11:55:17.939Z,77.23
2019-02-02T11:57:44.941Z,71.97
2019-02-02T12:00:16.388Z,68.60
2019-02-02T12:02:49.450Z,63.05
2019-02-02T12:05:13.170Z,73.30
2019-02-02T12:07:40.145Z,67.50
2019-02-02T12:10:09.212Z,68.05
2019-02-02T12:12:36.419Z,63.15
2019-02-02T12:15:05.455Z,69.30
2019-02-02T12:17:32.444Z,78.33
2019-02-02T12:19:59.328Z,73.70
2019-02-02T12:22:26.796Z,77.85
2019-02-02T12:24:53.833Z,68.53
2019-02-02T12:27:21.028Z,70.53
2019-02-02T12:29:47.929Z,77.00
2019-02-02T12:32:25.838Z,71.30
2019-02-02T12:34:43.777Z,64.33
2019-02-02T12:37:10.693Z,78.63
2019-02-02T12:39:37.594Z,82.50
2019-02-02T12:42:04.527Z,71.17
2019-02-02T12:44:31.466Z,72.10
2019-02-02T12:46:58.429Z,69.00
2019-02-02T12:49:25.538Z,77.30
2019-02-02T12:51:52.494Z,73.87
2019-02-02T12:54:19.467Z,73.73
2019-02-02T12:56:46.382Z,71.90
2019-02-02T12:59:13.325Z,76.00
2019-02-02T13:01:40.279Z,87.45
2019-02-02T13:04:07.369Z,71.13
2019-02-02T13:06:34.315Z,87.97
2019-02-02T13:09:01.407Z,79.77
2019-02-02T13:11:28.333Z,74.67
2019-02-02T13:13:55.270Z,80.07
2019-02-02T13:16:22.178Z,82.10
2019-02-02T13:18:49.114Z,80.53
2019-02-02T13:21:16.047Z,75.10
2019-02-02T13:23:42.987Z,76.97
2019-02-02T13:26:09.931Z,77.17
2019-02-02T13:28:36.870Z,76.93
2019-02-02T13:31:03.898Z,70.67
2019-02-02T13:33:30.847Z,71.87
2019-02-02T13:35:57.750Z,97.87
2019-02-02T13:38:24.784Z,113.47
2019-02-02T13:40:51.762Z,122.77
2019-02-02T13:43:18.757Z,82.63
2019-02-02T13:45:45.637Z,81.27
2019-02-02T13:48:12.575Z,91.30
2019-02-02T13:50:39.540Z,94.10
2019-02-02T13:53:07.661Z,104.67
2019-02-02T13:55:34.843Z,100.05
2019-02-02T13:58:01.794Z,86.50
2019-02-02T14:00:29.850Z,73.07
2019-02-02T14:03:02.702Z,79.17
2019-02-02T14:05:30.356Z,86.03
2019-02-02T14:08:00.051Z,92.43
2019-02-02T14:10:27.760Z,98.33
2019-02-02T14:12:54.729Z,96.00
2019-02-02T14:15:21.803Z,93.47
2019-02-02T14:17:48.705Z,91.27
2019-02-02T14:20:15.623Z,96.37
2019-02-02T14:22:42.648Z,86.43
2019-02-02T14:25:10.073Z,100.53
2019-02-02T14:27:37.019Z,98.63
2019-02-02T14:30:07.312Z,89.57
2019-02-02T14:32:34.326Z,91.97
2019-02-02T14:35:01.287Z,90.20
2019-02-02T14:37:28.184Z,99.50
2019-02-02T14:39:55.113Z,96.90
2019-02-02T14:42:22.035Z,97.10
2019-02-02T14:44:48.978Z,89.90
2019-02-02T14:47:15.900Z,93.43
2019-02-02T14:49:42.802Z,102.07
2019-02-02T14:52:09.720Z,95.80
2019-02-02T14:54:36.671Z,99.80
2019-02-02T14:57:03.695Z,100.67
2019-02-02T14:59:30.630Z,100.73
2019-02-02T15:01:57.522Z,98.60
2019-02-02T15:04:24.460Z,91.47
2019-02-02T15:06:51.359Z,99.23
2019-02-02T15:09:18.306Z,94.87
2019-02-02T15:11:45.563Z,108.27
2019-02-02T15:14:12.539Z,98.43
2019-02-02T15:16:39.494Z,95.40
2019-02-02T15:19:06.416Z,106.93
2019-02-02T15:21:33.395Z,101.60
2019-02-02T15:24:00.291Z,103.17
2019-02-02T15:26:27.239Z,106.40
2019-02-02T15:28:54.244Z,105.40
2019-02-02T15:31:21.167Z,103.60
2019-02-02T15:33:48.127Z,105.37
2019-02-02T15:36:15.082Z,95.03
2019-02-02T15:38:42.427Z,102.33
2019-02-02T15:41:09.349Z,105.97
2019-02-02T15:43:36.226Z,98.80
2019-02-02T15:46:03.278Z,98.70
2019-02-02T15:48:30.160Z,98.93
2019-02-02T15:50:57.210Z,100.47
2019-02-02T15:53:24.150Z,103.23
2019-02-02T15:55:51.083Z,92.87
2019-02-02T15:58:17.977Z,99.30
2019-02-02T16:00:45.019Z,102.07
2019-02-02T16:03:11.920Z,102.60
2019-02-02T16:05:39.052Z,107.37
2019-02-02T16:08:13.707Z,103.73
2019-02-02T16:10:40.661Z,89.17
2019-02-02T16:13:07.568Z,101.80
2019-02-02T16:15:34.747Z,98.13
2019-02-02T16:18:01.798Z,105.87
2019-02-02T16:20:31.440Z,100.70
2019-02-02T16:22:58.456Z,114.73
2019-02-02T16:25:25.334Z,102.40
2019-02-02T16:27:52.282Z,102.40
2019-02-02T16:30:21.150Z,103.10
2019-02-02T16:32:48.098Z,108.20
2019-02-02T16:35:15.028Z,113.97
2019-02-02T16:37:41.927Z,106.70
2019-02-02T16:40:12.275Z,110.80
2019-02-02T16:42:39.271Z,91.50
2019-02-02T16:45:08.557Z,125.05
2019-02-02T16:47:35.536Z,112.43
2019-02-02T16:50:02.861Z,96.27
2019-02-02T16:52:30.001Z,164.73
2019-02-02T16:54:56.889Z,105.30
2019-02-02T16:57:23.831Z,132.50
2019-02-02T16:59:50.742Z,91.27
2019-02-02T17:02:17.714Z,195.80
2019-02-02T17:04:44.648Z,130.73
2019-02-02T17:07:11.603Z,121.73
2019-02-02T17:09:41.389Z,104.83
2019-02-02T17:12:07.442Z,90.97
2019-02-02T17:14:34.456Z,82.87
2019-02-02T17:17:01.397Z,94.50
2019-02-02T17:19:28.290Z,115.00
2019-02-02T17:21:55.266Z,106.83
2019-02-02T17:24:22.203Z,94.27
2019-02-02T17:26:49.153Z,94.90
2019-02-02T17:29:16.144Z,102.83
2019-02-02T17:31:43.040Z,99.93
2019-02-02T17:34:10.022Z,109.03
2019-02-02T17:36:37.009Z,98.83
2019-02-02T17:39:05.554Z,92.70
2019-02-02T17:41:32.458Z,105.93
2019-02-02T17:43:59.389Z,95.13
2019-02-02T17:46:26.352Z,93.23
2019-02-02T17:48:53.362Z,96.77
2019-02-02T17:51:20.576Z,82.27
2019-02-02T17:53:47.519Z,102.07
2019-02-02T17:56:14.411Z,99.13
2019-02-02T17:58:41.327Z,89.43
2019-02-02T18:01:08.255Z,89.83
2019-02-02T18:03:35.176Z,100.23
2019-02-02T18:06:02.097Z,95.40
2019-02-02T18:08:29.048Z,89.33
2019-02-02T18:10:55.956Z,101.27
2019-02-02T18:13:23.110Z,89.73
2019-02-02T18:15:50.006Z,99.20
2019-02-02T18:18:16.931Z,112.03
2019-02-02T18:20:43.883Z,97.30
2019-02-02T18:23:10.820Z,101.60
2019-02-02T18:25:37.746Z,102.10
2019-02-02T18:28:04.678Z,99.43
2019-02-02T18:30:31.651Z,105.57
2019-02-02T18:32:58.551Z,103.10
2019-02-02T18:35:25.834Z,100.67
2019-02-02T18:37:52.772Z,113.30
2019-02-02T18:40:19.915Z,100.63
2019-02-02T18:42:46.901Z,110.97
2019-02-02T18:45:16.672Z,107.87
2019-02-02T18:47:43.579Z,114.47
2019-02-02T18:50:12.491Z,109.30
2019-02-02T18:52:39.458Z,108.17
2019-02-02T18:55:08.624Z,113.53
2019-02-02T18:57:35.564Z,110.60
2019-02-02T19:00:06.157Z,110.97
2019-02-02T19:02:31.905Z,108.47
2019-02-02T19:05:04.049Z,113.55
2019-02-02T19:07:27.782Z,128.33
2019-02-02T19:09:54.799Z,116.63
2019-02-02T19:12:21.751Z,129.50
2019-02-02T19:14:48.660Z,113.00
2019-02-02T19:17:15.588Z,120.67
2019-02-02T19:19:42.553Z,123.03
2019-02-02T19:22:09.468Z,125.50
2019-02-02T19:24:36.410Z,119.03
2019-02-02T19:27:03.284Z,121.10
2019-02-02T19:29:30.374Z,129.47
2019-02-02T19:31:57.354Z,130.97
2019-02-02T19:34:24.609Z,105.90
2019-02-02T19:36:51.484Z,121.90
2019-02-02T19:39:18.389Z,124.73
2019-02-02T19:41:45.271Z,118.77
2019-02-02T19:44:12.179Z,123.03
2019-02-02T19:46:39.049Z,115.60
2019-02-02T19:49:05.972Z,132.10
2019-02-02T19:51:33.634Z,127.60
2019-02-02T19:54:00.943Z,133.67
2019-02-02T19:56:27.892Z,132.53
2019-02-02T19:58:54.827Z,161.50
2019-02-02T20:01:21.816Z,125.47
2019-02-02T20:03:48.712Z,130.33
2019-02-02T20:06:15.641Z,137.57
2019-02-02T20:08:42.518Z,133.07
2019-02-02T20:11:09.453Z,143.83
2019-02-02T20:13:36.932Z,141.73
2019-02-02T20:16:04.312Z,144.67
2019-02-02T20:18:31.232Z,137.37
2019-02-02T20:20:58.152Z,140.23
2019-02-02T20:23:25.040Z,130.13
2019-02-02T20:25:51.993Z,142.67
2019-02-02T20:28:18.884Z,147.50
2019-02-02T20:30:45.969Z,143.57
2019-02-02T20:33:12.839Z,132.20
2019-02-02T20:35:42.349Z,135.53
2019-02-02T20:38:08.622Z,129.87
2019-02-02T20:40:35.563Z,132.00
2019-02-02T20:43:02.603Z,139.90
2019-02-02T20:45:31.601Z,144.23
2019-02-02T20:47:58.537Z,148.10
2019-02-02T20:50:25.484Z,142.43
2019-02-02T20:52:52.374Z,140.57
2019-02-02T20:55:27.369Z,145.03
2019-02-02T20:57:54.282Z,137.57
2019-02-02T21:00:22.799Z,153.40
2019-02-02T21:02:49.737Z,130.57
2019-02-02T21:05:16.638Z,135.63
2019-02-02T21:07:43.695Z,131.80
2019-02-02T21:10:13.439Z,136.73
2019-02-02T21:12:40.347Z,134.20
2019-02-02T21:15:08.922Z,130.03
2019-02-02T21:17:35.855Z,131.53
2019-02-02T21:20:04.016Z,134.43
2019-02-02T21:22:30.926Z,137.70
2019-02-02T21:24:57.805Z,125.03
2019-02-02T21:27:25.129Z,132.80
2019-02-02T21:29:52.489Z,136.07
2019-02-02T21:32:19.400Z,116.03
2019-02-02T21:34:46.488Z,120.90
2019-02-02T21:37:13.432Z,120.17
2019-02-02T21:39:40.343Z,127.23
2019-02-02T21:42:07.711Z,122.27
2019-02-02T21:44:42.946Z,107.03
2019-02-02T21:47:03.774Z,128.87
2019-02-02T21:49:30.878Z,111.70
2019-02-02T21:51:57.821Z,126.20
2019-02-02T21:54:25.773Z,116.87
2019-02-02T21:56:52.923Z,111.73
2019-02-02T21:59:19.830Z,105.23
2019-02-02T22:01:46.814Z,108.63
2019-02-02T22:04:13.727Z,101.07
2019-02-02T22:06:40.642Z,111.53
2019-02-02T22:09:07.843Z,115.57
2019-02-02T22:11:34.746Z,114.10
2019-02-02T22:14:02.019Z,106.23
2019-02-02T22:16:28.972Z,106.70
2019-02-02T22:18:55.962Z,103.50
2019-02-02T22:21:22.903Z,105.17
2019-02-02T22:23:49.904Z,121.17
2019-02-02T22:26:16.867Z,114.50
2019-02-02T22:28:43.816Z,114.30
2019-02-02T22:31:10.879Z,108.50
2019-02-02T22:33:37.823Z,102.20
2019-02-02T22:36:04.769Z,107.60
2019-02-02T22:38:31.751Z,113.03
2019-02-02T22:40:58.729Z,95.70
2019-02-02T22:43:25.647Z,108.13
2019-02-02T22:45:52.913Z,112.03
2019-02-02T22:48:19.889Z,93.53
2019-02-02T22:50:46.795Z,100.43
2019-02-02T22:53:13.926Z,108.57
2019-02-02T22:55:40.840Z,109.90
2019-02-02T22:58:07.875Z,115.60
2019-02-02T23:01:03.517Z,95.77
2019-02-02T23:03:46.123Z,104.50
2019-02-02T23:06:49.645Z,117.53
2019-02-02T23:09:54.397Z,111.83
2019-02-02T23:12:30.560Z,96.17
2019-02-02T23:15:27.802Z,101.87
2019-02-02T23:17:54.669Z,111.33
2019-02-02T23:20:21.610Z,105.43
2019-02-02T23:22:48.499Z,101.73
2019-02-02T23:25:15.479Z,106.10
2019-02-02T23:27:42.360Z,90.20
2019-02-02T23:30:10.624Z,118.40
2019-02-02T23:32:37.596Z,114.23
2019-02-02T23:35:04.624Z,107.07
2019-02-02T23:37:31.500Z,111.20
2019-02-02T23:39:58.410Z,103.67
2019-02-02T23:42:25.362Z,102.70
2019-02-02T23:44:52.369Z,106.10
2019-02-02T23:47:19.702Z,96.00
2019-02-02T23:49:46.621Z,98.80
2019-02-02T23:52:13.559Z,115.77
2019-02-02T23:54:40.452Z,108.53
2019-02-02T23:57:07.339Z,113.10
2019-02-02T23:59:35.284Z,117.27
